createdAt,value
2019-05-12T00:02:13.741Z,90.40
2019-05-12T00:04:44.053Z,90.80
2019-05-12T00:07:17.978Z,90.60
2019-05-12T00:09:48.040Z,91.00
2019-05-12T00:12:18.572Z,90.60
2019-05-12T00:14:48.879Z,90.10
2019-05-12T00:20:08.735Z,90.00
2019-05-12T00:22:43.837Z,90.40
2019-05-12T00:25:14.368Z,90.10
2019-05-12T00:27:44.681Z,90.00
2019-05-12T00:30:32.782Z,90.60
2019-05-12T00:33:05.135Z,91.70
2019-05-12T00:35:38.073Z,90.70
2019-05-12T00:38:09.295Z,91.20
2019-05-12T00:40:39.952Z,91.70
2019-05-12T00:43:10.633Z,92.20
2019-05-12T00:45:40.944Z,92.30
2019-05-12T00:48:11.255Z,92.00
2019-05-12T00:50:41.566Z,92.30
2019-05-12T00:53:11.845Z,92.40
2019-05-12T00:55:42.167Z,93.40
2019-05-12T00:58:12.410Z,93.20
2019-05-12T01:00:42.582Z,92.80
2019-05-12T01:03:12.901Z,93.40
2019-05-12T01:05:43.150Z,93.30
2019-05-12T01:08:13.536Z,93.10
2019-05-12T01:10:47.897Z,93.40
2019-05-12T01:13:20.190Z,93.50
2019-05-12T01:15:50.266Z,93.50
2019-05-12T01:18:20.527Z,93.30
2019-05-12T01:20:52.283Z,93.20
2019-05-12T01:23:23.491Z,93.60
2019-05-12T01:25:58.294Z,93.40
2019-05-12T01:28:27.829Z,93.40
2019-05-12T01:31:03.167Z,93.60
2019-05-12T01:33:35.238Z,93.10
2019-05-12T01:36:07.807Z,93.20
2019-05-12T01:38:37.982Z,93.00
2019-05-12T01:41:08.827Z,93.10
2019-05-12T01:43:39.121Z,93.10
2019-05-12T01:46:10.391Z,93.30
2019-05-12T01:48:41.092Z,93.60
2019-05-12T01:51:12.925Z,93.20
2019-05-12T01:53:43.164Z,93.60
2019-05-12T01:56:13.464Z,93.70
2019-05-12T01:58:43.765Z,93.30
2019-05-12T02:01:14.091Z,93.60
2019-05-12T02:03:44.488Z,93.10
2019-05-12T02:06:18.334Z,92.90
2019-05-12T02:08:49.634Z,92.30
2019-05-12T02:11:31.982Z,93.30
2019-05-12T02:14:06.116Z,92.90
2019-05-12T02:16:38.472Z,92.80
2019-05-12T02:19:09.185Z,93.80
2019-05-12T02:21:42.702Z,94.20
2019-05-12T02:24:26.325Z,93.60
2019-05-12T02:26:48.516Z,94.00
2019-05-12T02:29:20.482Z,93.30
2019-05-12T02:31:50.699Z,93.80
2019-05-12T02:34:21.007Z,93.90
2019-05-12T02:36:51.317Z,94.10
2019-05-12T02:39:24.610Z,94.10
2019-05-12T02:41:54.225Z,93.70
2019-05-12T02:44:24.968Z,93.70
2019-05-12T02:46:56.651Z,93.80
2019-05-12T02:49:26.890Z,93.70
2019-05-12T02:52:00.599Z,94.20
2019-05-12T02:54:50.531Z,94.60
2019-05-12T02:57:06.002Z,94.00
2019-05-12T02:59:39.236Z,94.40
2019-05-12T03:02:18.830Z,94.00
2019-05-12T03:04:54.419Z,94.10
2019-05-12T03:07:25.629Z,93.90
2019-05-12T03:09:56.416Z,94.00
2019-05-12T03:12:27.619Z,94.70
2019-05-12T03:14:57.867Z,94.40
2019-05-12T03:17:28.289Z,94.30
2019-05-12T03:19:58.651Z,94.60
2019-05-12T03:22:28.951Z,94.70
2019-05-12T03:25:11.311Z,94.70
2019-05-12T03:27:35.071Z,94.50
2019-05-12T03:30:11.695Z,94.60
2019-05-12T03:32:39.374Z,95.00
2019-05-12T03:35:09.891Z,94.30
2019-05-12T03:37:40.123Z,94.30
2019-05-12T03:40:10.595Z,94.70
2019-05-12T03:42:40.836Z,94.60
2019-05-12T03:45:11.089Z,94.60
2019-05-12T03:47:45.203Z,94.60
2019-05-12T03:50:14.788Z,94.20
2019-05-12T03:52:45.139Z,95.00
2019-05-12T03:55:34.401Z,94.70
2019-05-12T03:57:55.037Z,94.70
2019-05-12T04:00:24.924Z,94.90
2019-05-12T04:02:55.725Z,94.60
2019-05-12T04:05:34.548Z,94.80
2019-05-12T04:08:06.820Z,94.70
2019-05-12T04:10:38.386Z,95.10
2019-05-12T04:13:08.715Z,95.30
2019-05-12T04:15:45.095Z,95.60
2019-05-12T04:18:15.882Z,94.90
2019-05-12T04:20:46.111Z,94.90
2019-05-12T04:23:16.423Z,95.30
2019-05-12T04:25:52.588Z,95.40
2019-05-12T04:28:18.520Z,95.30
2019-05-12T04:30:50.228Z,95.30
2019-05-12T04:33:20.410Z,95.20
2019-05-12T04:35:50.581Z,94.90
2019-05-12T04:38:24.835Z,94.90
2019-05-12T04:40:58.413Z,94.80
2019-05-12T04:43:28.733Z,94.90
2019-05-12T04:45:58.990Z,94.60
2019-05-12T04:48:29.189Z,94.80
2019-05-12T04:50:59.495Z,94.70
2019-05-12T04:53:29.797Z,94.70
2019-05-12T04:56:10.942Z,94.90
2019-05-12T04:58:34.838Z,94.70
2019-05-12T05:01:06.364Z,95.10
2019-05-12T05:03:35.776Z,95.00
2019-05-12T05:06:07.104Z,94.90
2019-05-12T05:08:37.403Z,95.00
2019-05-12T05:11:07.651Z,95.30
2019-05-12T05:13:39.740Z,95.60
2019-05-12T05:16:09.886Z,95.70
2019-05-12T05:18:40.898Z,94.90
2019-05-12T05:21:13.906Z,94.70
2019-05-12T05:23:45.574Z,94.50
2019-05-12T05:26:24.717Z,94.90
2019-05-12T05:28:50.407Z,94.70
2019-05-12T05:31:24.170Z,94.80
2019-05-12T05:33:53.812Z,94.60
2019-05-12T05:36:25.113Z,94.70
2019-05-12T05:39:00.265Z,94.60
2019-05-12T05:41:31.020Z,94.40
2019-05-12T05:44:03.086Z,94.60
2019-05-12T05:46:47.729Z,94.90
2019-05-12T05:49:13.423Z,95.10
2019-05-12T05:51:46.642Z,95.20
2019-05-12T05:54:24.678Z,95.30
2019-05-12T05:57:02.577Z,95.00
2019-05-12T05:59:36.873Z,95.40
2019-05-12T06:02:14.958Z,94.90
2019-05-12T06:04:49.827Z,94.70
2019-05-12T06:07:35.031Z,95.00
2019-05-12T06:10:16.103Z,95.00
2019-05-12T06:12:54.256Z,95.30
2019-05-12T06:15:29.727Z,94.90
2019-05-12T06:18:03.595Z,94.30
2019-05-12T06:20:50.620Z,94.60
2019-05-12T06:23:39.187Z,94.80
2019-05-12T06:26:37.582Z,94.60
2019-05-12T06:29:11.248Z,94.50
2019-05-12T06:31:46.334Z,94.80
2019-05-12T06:37:26.297Z,94.40
2019-05-12T06:40:03.966Z,94.90
2019-05-12T06:42:38.827Z,95.00
2019-05-12T06:45:09.430Z,94.70
2019-05-12T06:47:45.264Z,94.80
2019-05-12T06:50:16.219Z,94.60
2019-05-12T06:52:49.013Z,95.00
2019-05-12T06:55:18.420Z,95.20
2019-05-12T06:57:50.232Z,94.60
2019-05-12T07:00:22.271Z,95.00
2019-05-12T07:02:55.166Z,94.70
2019-05-12T07:05:27.971Z,94.80
2019-05-12T07:07:56.384Z,95.20
2019-05-12T07:10:43.350Z,94.60
2019-05-12T07:13:05.761Z,94.30
2019-05-12T07:15:40.106Z,95.10
2019-05-12T07:18:14.045Z,95.10
2019-05-12T07:20:43.899Z,94.50
2019-05-12T07:23:19.577Z,94.40
2019-05-12T07:25:49.279Z,95.00
2019-05-12T07:28:21.010Z,94.90
2019-05-12T07:30:56.382Z,94.70
2019-05-12T07:33:26.908Z,94.50
2019-05-12T07:36:17.746Z,94.40
2019-05-12T07:38:50.262Z,94.10
2019-05-12T07:41:23.719Z,94.30
2019-05-12T07:44:00.751Z,94.20
2019-05-12T07:46:39.667Z,94.20
2019-05-12T07:49:09.438Z,94.20
2019-05-12T07:51:40.958Z,94.50
2019-05-12T07:54:14.234Z,94.80
2019-05-12T07:56:44.334Z,94.30
2019-05-12T07:59:14.342Z,94.30
2019-05-12T08:01:51.704Z,94.50
2019-05-12T08:04:16.289Z,94.80
2019-05-12T08:06:46.938Z,94.20
2019-05-12T08:09:18.254Z,94.00
2019-05-12T08:11:49.239Z,94.00
2019-05-12T08:14:25.768Z,94.00
2019-05-12T08:16:51.134Z,93.80
2019-05-12T08:19:28.089Z,93.90
2019-05-12T08:21:54.762Z,93.90
2019-05-12T08:24:24.814Z,93.40
2019-05-12T08:27:01.431Z,93.70
2019-05-12T08:29:26.725Z,93.20
2019-05-12T08:31:58.374Z,93.30
2019-05-12T08:34:28.434Z,93.10
2019-05-12T08:36:58.561Z,93.50
2019-05-12T08:39:28.854Z,93.40
2019-05-12T08:41:58.923Z,93.50
2019-05-12T08:44:33.484Z,93.00
2019-05-12T08:47:00.586Z,93.20
2019-05-12T08:49:34.140Z,93.40
2019-05-12T08:52:03.865Z,92.80
2019-05-12T08:54:34.230Z,93.00
2019-05-12T08:57:04.563Z,93.30
2019-05-12T08:59:34.666Z,93.20
2019-05-12T09:02:08.899Z,92.90
2019-05-12T09:04:36.966Z,92.90
2019-05-12T09:07:08.618Z,93.00
2019-05-12T09:09:38.754Z,93.10
2019-05-12T09:12:11.183Z,92.70
2019-05-12T09:14:46.226Z,93.20
2019-05-12T09:17:13.927Z,92.80
2019-05-12T09:19:44.573Z,92.80
2019-05-12T09:22:19.404Z,92.50
2019-05-12T09:24:46.386Z,92.60
2019-05-12T09:27:17.473Z,92.70
2019-05-12T09:29:47.534Z,92.50
2019-05-12T09:32:19.332Z,92.30
2019-05-12T09:34:52.912Z,92.40
2019-05-12T09:37:21.021Z,92.50
2019-05-12T09:39:53.674Z,92.70
2019-05-12T09:42:28.572Z,92.60
2019-05-12T09:44:59.985Z,92.60
2019-05-12T09:47:31.702Z,91.50
2019-05-12T09:50:04.537Z,92.20
2019-05-12T09:52:35.907Z,91.70
2019-05-12T09:55:06.208Z,92.00
2019-05-12T09:57:40.687Z,91.90
2019-05-12T10:00:09.408Z,91.30
2019-05-12T10:02:39.523Z,91.70
2019-05-12T10:05:09.820Z,92.00
2019-05-12T10:07:41.202Z,92.30
2019-05-12T10:10:14.021Z,92.70
2019-05-12T10:12:46.271Z,92.50
2019-05-12T10:15:18.747Z,91.70
2019-05-12T10:17:47.933Z,93.40
2019-05-12T10:20:17.963Z,93.10
2019-05-12T10:23:10.093Z,93.30
2019-05-12T10:25:37.726Z,93.10
2019-05-12T10:28:11.859Z,92.90
2019-05-12T10:30:47.178Z,93.10
2019-05-12T10:33:14.206Z,93.00
2019-05-12T10:35:44.341Z,92.70
2019-05-12T10:38:14.454Z,92.80
2019-05-12T10:40:47.810Z,92.80
2019-05-12T10:43:35.726Z,93.10
2019-05-12T10:46:06.057Z,93.00
2019-05-12T10:48:55.502Z,93.60
2019-05-12T10:51:25.707Z,93.00
2019-05-12T10:54:09.182Z,92.70
2019-05-12T10:56:31.004Z,92.80
2019-05-12T10:59:01.054Z,93.10
2019-05-12T11:01:31.183Z,92.80
2019-05-12T11:04:01.169Z,92.80
2019-05-12T11:06:31.240Z,92.60
2019-05-12T11:09:03.737Z,92.70
2019-05-12T11:11:46.798Z,91.70
2019-05-12T11:14:14.773Z,92.20
2019-05-12T11:16:44.906Z,92.10
2019-05-12T11:19:14.974Z,92.30
2019-05-12T11:21:47.757Z,91.80
2019-05-12T11:24:17.938Z,91.50
2019-05-12T11:26:49.597Z,92.70
2019-05-12T11:29:19.722Z,92.30
2019-05-12T11:31:53.713Z,92.20
2019-05-12T11:34:24.258Z,92.20
2019-05-12T11:36:54.657Z,92.80
2019-05-12T11:39:25.293Z,92.00
2019-05-12T11:41:57.564Z,91.80
2019-05-12T11:44:27.585Z,91.30
2019-05-12T11:46:57.708Z,90.60
2019-05-12T11:49:28.147Z,91.30
2019-05-12T11:52:01.111Z,91.60
2019-05-12T11:54:30.460Z,92.30
2019-05-12T11:57:02.748Z,92.00
2019-05-12T11:59:34.186Z,91.50
2019-05-12T12:02:05.710Z,91.20
2019-05-12T12:04:47.898Z,91.00
2019-05-12T12:07:18.050Z,91.20
2019-05-12T12:09:49.486Z,91.80
2019-05-12T12:12:24.255Z,91.80
2019-05-12T12:14:54.516Z,92.10
2019-05-12T12:17:31.237Z,92.10
2019-05-12T12:19:58.026Z,92.30
2019-05-12T12:22:48.859Z,91.70
2019-05-12T12:25:20.545Z,91.90
2019-05-12T12:27:50.618Z,91.40
2019-05-12T12:30:23.472Z,90.80
2019-05-12T12:32:58.675Z,91.50
2019-05-12T12:35:26.942Z,91.80
2019-05-12T12:38:03.350Z,91.90
2019-05-12T12:40:33.031Z,92.50
2019-05-12T12:43:07.127Z,92.80
2019-05-12T12:45:43.432Z,91.40
2019-05-12T12:48:13.826Z,92.00
2019-05-12T12:50:45.995Z,90.90
2019-05-12T12:53:16.077Z,91.10
2019-05-12T12:55:53.765Z,91.40
2019-05-12T12:58:26.909Z,91.50
2019-05-12T13:00:57.068Z,89.80
2019-05-12T13:03:30.042Z,90.20
2019-05-12T13:06:00.590Z,90.50
2019-05-12T13:08:34.097Z,91.20
2019-05-12T13:11:06.627Z,90.50
2019-05-12T13:13:36.690Z,90.00
2019-05-12T13:16:06.887Z,89.80
2019-05-12T13:18:38.791Z,90.10
2019-05-12T13:21:09.012Z,90.60
2019-05-12T13:23:56.495Z,91.20
2019-05-12T13:26:26.698Z,90.60
2019-05-12T13:28:59.504Z,90.70
2019-05-12T13:31:33.294Z,90.30
2019-05-12T13:34:05.094Z,89.90
2019-05-12T13:36:39.113Z,90.10
2019-05-12T13:39:11.314Z,88.30
2019-05-12T13:41:39.816Z,87.30
2019-05-12T13:44:13.719Z,88.00
2019-05-12T13:46:48.718Z,89.30
2019-05-12T13:49:15.437Z,84.30
2019-05-12T13:51:48.284Z,85.80
2019-05-12T13:54:20.129Z,86.30
2019-05-12T13:56:49.866Z,86.00
2019-05-12T13:59:22.584Z,84.80
2019-05-12T14:01:53.898Z,86.90
2019-05-12T14:04:27.868Z,84.90
2019-05-12T14:06:56.072Z,83.00
2019-05-12T14:09:26.137Z,81.20
2019-05-12T14:11:56.272Z,82.60
2019-05-12T14:14:26.444Z,81.80
2019-05-12T14:16:59.218Z,83.40
2019-05-12T14:19:35.571Z,83.30
2019-05-12T14:22:03.565Z,82.70
2019-05-12T14:24:42.190Z,81.60
2019-05-12T14:27:19.073Z,83.30
2019-05-12T14:29:50.447Z,80.50
2019-05-12T14:32:24.064Z,82.30
2019-05-12T14:34:59.333Z,80.50
2019-05-12T14:37:25.792Z,80.30
2019-05-12T14:39:56.168Z,82.00
2019-05-12T14:42:34.848Z,80.60
2019-05-12T14:44:58.007Z,82.20
2019-05-12T14:47:30.074Z,82.20
2019-05-12T14:49:59.752Z,81.30
2019-05-12T14:52:30.035Z,79.30
2019-05-12T14:55:00.130Z,80.20
2019-05-12T14:57:37.277Z,80.50
2019-05-12T15:00:03.990Z,82.50
2019-05-12T15:02:43.746Z,82.40
2019-05-12T15:05:14.280Z,80.50
2019-05-12T15:07:50.838Z,81.80
2019-05-12T15:10:16.638Z,80.50
2019-05-12T15:12:46.859Z,81.20
2019-05-12T15:15:20.553Z,81.40
2019-05-12T15:17:49.036Z,82.60
2019-05-12T15:20:19.159Z,82.50
2019-05-12T15:22:51.465Z,83.70
2019-05-12T15:25:21.506Z,84.40
2019-05-12T15:27:54.319Z,84.70
2019-05-12T15:30:26.742Z,84.00
2019-05-12T15:32:57.911Z,84.30
2019-05-12T15:35:38.179Z,84.20
2019-05-12T15:38:18.073Z,83.90
2019-05-12T15:40:49.702Z,82.80
2019-05-12T15:43:21.163Z,82.00
2019-05-12T15:45:55.235Z,83.10
2019-05-12T15:48:26.064Z,82.30
2019-05-12T15:51:05.182Z,82.60
2019-05-12T15:53:35.912Z,81.40
2019-05-12T15:56:14.787Z,82.30
2019-05-12T15:58:39.959Z,82.70
2019-05-12T16:01:13.896Z,81.10
2019-05-12T16:03:47.824Z,81.80
2019-05-12T16:06:19.805Z,81.60
2019-05-12T16:08:50.078Z,80.90
2019-05-12T16:11:20.070Z,80.90
2019-05-12T16:13:57.352Z,83.10
2019-05-12T16:16:21.758Z,84.20
2019-05-12T16:18:53.958Z,82.50
2019-05-12T16:21:24.241Z,82.60
2019-05-12T16:24:04.972Z,81.70
2019-05-12T16:26:33.421Z,81.90
2019-05-12T16:29:06.968Z,79.30
2019-05-12T16:31:39.379Z,80.30
2019-05-12T16:34:09.345Z,80.40
2019-05-12T16:36:41.089Z,79.90
2019-05-12T16:39:13.409Z,80.90
2019-05-12T16:41:43.960Z,78.30
2019-05-12T16:44:21.318Z,79.00
2019-05-12T16:46:45.793Z,81.70
2019-05-12T16:49:16.391Z,82.10
2019-05-12T16:51:46.538Z,80.10
2019-05-12T16:54:28.829Z,79.20
2019-05-12T16:57:06.358Z,80.10
2019-05-12T16:59:39.066Z,77.50
2019-05-12T17:17:35.635Z,78.00
2019-05-12T17:23:03.476Z,73.90
2019-05-12T17:25:35.685Z,77.20
2019-05-12T17:33:50.547Z,77.80
2019-05-12T17:36:20.770Z,77.00
2019-05-12T17:38:56.014Z,77.70
2019-05-12T17:41:25.734Z,77.60
2019-05-12T17:44:01.175Z,76.90
2019-05-12T17:49:04.031Z,76.30
2019-05-12T17:51:34.449Z,77.50
2019-05-12T17:54:06.888Z,77.80
2019-05-12T17:56:38.597Z,78.20
2019-05-12T17:59:08.898Z,76.60
2019-05-12T18:01:38.990Z,75.90
2019-05-12T18:04:09.555Z,75.70
2019-05-12T18:06:45.269Z,76.40
2019-05-12T18:09:19.905Z,75.90
2019-05-12T18:11:54.198Z,75.80
2019-05-12T18:14:19.714Z,74.50
2019-05-12T18:16:53.891Z,76.00
2019-05-12T18:19:27.409Z,74.90
2019-05-12T18:22:03.423Z,74.40
2019-05-12T18:24:31.042Z,73.40
2019-05-12T18:27:07.255Z,73.30
2019-05-12T18:29:34.310Z,74.20
2019-05-12T18:32:08.112Z,73.80
2019-05-12T18:34:37.917Z,72.30
2019-05-12T18:37:10.105Z,71.70
2019-05-12T18:39:40.310Z,72.00
2019-05-12T18:42:13.796Z,71.30
2019-05-12T18:44:46.132Z,69.60
2019-05-12T18:47:17.055Z,68.70
2019-05-12T18:49:50.014Z,72.00
2019-05-12T18:52:19.730Z,70.80
2019-05-12T18:55:29.405Z,70.10
2019-05-12T18:57:58.678Z,69.70
2019-05-12T19:00:29.945Z,70.20
2019-05-12T19:03:08.039Z,70.70
2019-05-12T19:05:31.949Z,71.30
2019-05-12T19:08:03.689Z,71.90
2019-05-12T19:10:38.482Z,70.00
2019-05-12T19:13:09.171Z,69.30
2019-05-12T19:15:41.100Z,69.20
2019-05-12T19:21:19.998Z,69.60
2019-05-12T19:24:08.690Z,70.20
2019-05-12T19:26:40.570Z,69.50
2019-05-12T19:29:14.065Z,69.50
2019-05-12T19:31:52.687Z,69.60
2019-05-12T19:34:31.804Z,69.90
2019-05-12T19:37:06.215Z,71.40
2019-05-12T19:39:50.086Z,69.70
2019-05-12T19:42:32.940Z,69.90
2019-05-12T19:45:07.047Z,69.80
2019-05-12T19:54:51.466Z,70.20
2019-05-12T20:01:00.199Z,71.20
2019-05-12T20:03:30.425Z,71.40
2019-05-12T20:06:02.270Z,70.20
2019-05-12T20:08:35.634Z,70.00
2019-05-12T20:11:11.402Z,68.40
2019-05-12T20:13:48.840Z,67.70
2019-05-12T20:16:29.744Z,67.30
2019-05-12T20:19:19.760Z,68.10
2019-05-12T20:21:48.869Z,65.90
2019-05-12T20:24:23.717Z,64.90
2019-05-12T20:26:53.858Z,65.70
2019-05-12T20:29:33.308Z,68.80
2019-05-12T20:32:09.529Z,67.70
2019-05-12T20:34:49.163Z,67.00
2019-05-12T20:37:17.881Z,66.40
2019-05-12T20:40:05.360Z,68.70
2019-05-12T20:42:56.787Z,71.00
2019-05-12T20:45:40.612Z,67.60
2019-05-12T20:48:14.421Z,68.70
2019-05-12T20:50:44.827Z,69.80
2019-05-12T20:53:24.792Z,70.00
2019-05-12T20:55:54.726Z,70.70
2019-05-12T20:58:37.534Z,69.90
2019-05-12T21:01:05.226Z,70.00
2019-05-12T21:03:50.848Z,67.10
2019-05-12T21:06:41.894Z,68.30
2019-05-12T21:09:17.635Z,68.10
2019-05-12T21:14:51.516Z,65.20
2019-05-12T21:17:35.495Z,65.70
2019-05-12T21:20:18.064Z,66.90
2019-05-12T21:22:53.907Z,66.10
2019-05-12T21:25:25.904Z,64.90
2019-05-12T21:28:02.991Z,65.30
2019-05-12T21:30:36.474Z,66.20
2019-05-12T21:33:10.689Z,66.60
2019-05-12T21:35:45.982Z,66.70
2019-05-12T21:38:18.906Z,65.70
2019-05-12T21:41:07.753Z,66.30
2019-05-12T21:43:37.514Z,63.90
2019-05-12T21:46:13.190Z,66.00
2019-05-12T21:48:45.778Z,66.00
2019-05-12T21:51:20.033Z,63.60
2019-05-12T21:53:50.583Z,65.00
2019-05-12T21:56:19.673Z,66.00
2019-05-12T21:58:56.477Z,66.30
2019-05-12T22:01:23.990Z,68.40
2019-05-12T22:03:58.847Z,67.10
2019-05-12T22:06:27.032Z,66.80
2019-05-12T22:09:02.919Z,68.10
2019-05-12T22:11:41.173Z,66.60
2019-05-12T22:14:13.688Z,66.20
2019-05-12T22:16:51.697Z,67.70
2019-05-12T22:19:21.994Z,66.00
2019-05-12T22:21:53.750Z,70.20
2019-05-12T22:27:21.893Z,73.60
2019-05-12T22:29:47.459Z,71.30
2019-05-12T22:32:24.531Z,72.80
2019-05-12T22:34:51.278Z,74.60
2019-05-12T22:37:23.839Z,75.50
2019-05-12T22:39:55.076Z,75.20
2019-05-12T22:42:25.138Z,75.90
2019-05-12T22:45:01.561Z,76.20
2019-05-12T22:47:26.979Z,77.30
2019-05-12T22:49:57.247Z,78.60
2019-05-12T22:52:29.160Z,77.80
2019-05-12T22:58:04.408Z,79.30
2019-05-12T23:00:35.799Z,80.90
2019-05-12T23:03:10.166Z,81.50
2019-05-12T23:05:37.846Z,81.10
2019-05-12T23:08:10.673Z,82.00
2019-05-12T23:10:41.674Z,81.80
2019-05-12T23:13:13.600Z,82.80
2019-05-12T23:15:49.270Z,78.80
2019-05-12T23:18:19.471Z,79.30
2019-05-12T23:20:54.235Z,82.30
2019-05-12T23:23:25.702Z,80.40
2019-05-12T23:26:00.618Z,81.20
2019-05-12T23:28:29.210Z,82.10
2019-05-12T23:30:59.347Z,79.40
2019-05-12T23:33:31.898Z,80.50
2019-05-12T23:36:03.904Z,80.80
2019-05-12T23:38:33.891Z,82.20
2019-05-12T23:41:04.962Z,82.10
2019-05-12T23:43:35.018Z,83.90
2019-05-12T23:46:05.217Z,82.90
2019-05-12T23:48:35.347Z,84.10
2019-05-12T23:51:09.572Z,83.30
2019-05-12T23:53:39.601Z,83.10
2019-05-12T23:56:16.534Z,83.30
2019-05-12T23:58:46.900Z,85.00
